sensor_id;sensor_type;location;lat;lon;timestamp;P1;durP1;ratioP1;P2;durP2;ratioP2
71753;SDS011;59593;51.716;7.016;2022-07-10T00:02:10;3.65;;;1.20;;
71753;SDS011;59593;51.716;7.016;2022-07-10T00:04:35;5.35;;;1.40;;
71753;SDS011;59593;51.716;7.016;2022-07-10T00:07:01;6.32;;;1.50;;
71753;SDS011;59593;51.716;7.016;2022-07-10T00:09:28;4.35;;;1.30;;
71753;SDS011;59593;51.716;7.016;2022-07-10T00:11:53;3.33;;;1.30;;
71753;SDS011;59593;51.716;7.016;2022-07-10T00:14:19;9.32;;;1.50;;
71753;SDS011;59593;51.716;7.016;2022-07-10T00:16:45;7.97;;;1.25;;
71753;SDS011;59593;51.716;7.016;2022-07-10T00:19:11;5.63;;;1.40;;
71753;SDS011;59593;51.716;7.016;2022-07-10T00:21:37;4.63;;;1.42;;
71753;SDS011;59593;51.716;7.016;2022-07-10T00:24:03;6.13;;;1.50;;
71753;SDS011;59593;51.716;7.016;2022-07-10T00:26:29;5.03;;;1.50;;
71753;SDS011;59593;51.716;7.016;2022-07-10T00:28:55;2.83;;;1.20;;
71753;SDS011;59593;51.716;7.016;2022-07-10T00:31:21;5.13;;;1.40;;
71753;SDS011;59593;51.716;7.016;2022-07-10T00:33:47;3.88;;;1.60;;
71753;SDS011;59593;51.716;7.016;2022-07-10T00:36:16;7.63;;;1.40;;
71753;SDS011;59593;51.716;7.016;2022-07-10T00:38:41;7.40;;;1.60;;
71753;SDS011;59593;51.716;7.016;2022-07-10T00:41:07;5.93;;;1.80;;
71753;SDS011;59593;51.716;7.016;2022-07-10T00:43:54;4.80;;;1.40;;
71753;SDS011;59593;51.716;7.016;2022-07-10T00:46:22;4.82;;;1.40;;
71753;SDS011;59593;51.716;7.016;2022-07-10T00:48:48;4.93;;;1.60;;
71753;SDS011;59593;51.716;7.016;2022-07-10T00:51:15;3.40;;;1.40;;
71753;SDS011;59593;51.716;7.016;2022-07-10T00:53:42;6.57;;;1.52;;
71753;SDS011;59593;51.716;7.016;2022-07-10T00:56:10;3.83;;;1.40;;
71753;SDS011;59593;51.716;7.016;2022-07-10T00:58:37;4.18;;;1.50;;
71753;SDS011;59593;51.716;7.016;2022-07-10T01:01:04;5.63;;;1.60;;
71753;SDS011;59593;51.716;7.016;2022-07-10T01:03:30;7.90;;;1.60;;
71753;SDS011;59593;51.716;7.016;2022-07-10T01:05:57;4.97;;;1.45;;
71753;SDS011;59593;51.716;7.016;2022-07-10T01:08:23;6.25;;;1.67;;
71753;SDS011;59593;51.716;7.016;2022-07-10T01:10:49;4.82;;;1.55;;
71753;SDS011;59593;51.716;7.016;2022-07-10T01:13:15;3.58;;;1.40;;
71753;SDS011;59593;51.716;7.016;2022-07-10T01:15:41;4.88;;;1.63;;
71753;SDS011;59593;51.716;7.016;2022-07-10T01:18:07;10.85;;;1.65;;
71753;SDS011;59593;51.716;7.016;2022-07-10T01:20:33;5.87;;;1.63;;
71753;SDS011;59593;51.716;7.016;2022-07-10T01:22:59;5.63;;;1.60;;
71753;SDS011;59593;51.716;7.016;2022-07-10T01:25:26;3.05;;;1.30;;
71753;SDS011;59593;51.716;7.016;2022-07-10T01:27:52;3.73;;;1.27;;
71753;SDS011;59593;51.716;7.016;2022-07-10T01:30:19;6.85;;;1.52;;
71753;SDS011;59593;51.716;7.016;2022-07-10T01:32:46;5.68;;;1.52;;
71753;SDS011;59593;51.716;7.016;2022-07-10T01:35:12;5.68;;;1.50;;
71753;SDS011;59593;51.716;7.016;2022-07-10T01:37:38;5.55;;;1.52;;
71753;SDS011;59593;51.716;7.016;2022-07-10T01:40:05;6.10;;;1.58;;
71753;SDS011;59593;51.716;7.016;2022-07-10T01:42:31;7.95;;;1.50;;
71753;SDS011;59593;51.716;7.016;2022-07-10T01:44:57;6.25;;;1.60;;
71753;SDS011;59593;51.716;7.016;2022-07-10T01:47:23;5.40;;;1.70;;
71753;SDS011;59593;51.716;7.016;2022-07-10T01:49:50;5.60;;;1.63;;
71753;SDS011;59593;51.716;7.016;2022-07-10T01:52:17;5.30;;;1.73;;
71753;SDS011;59593;51.716;7.016;2022-07-10T01:54:43;9.30;;;2.17;;
71753;SDS011;59593;51.716;7.016;2022-07-10T01:57:09;7.22;;;1.80;;
71753;SDS011;59593;51.716;7.016;2022-07-10T01:59:34;5.00;;;1.88;;
71753;SDS011;59593;51.716;7.016;2022-07-10T02:02:00;6.00;;;1.63;;
71753;SDS011;59593;51.716;7.016;2022-07-10T02:04:26;5.50;;;1.50;;
71753;SDS011;59593;51.716;7.016;2022-07-10T02:07:10;6.00;;;1.70;;
71753;SDS011;59593;51.716;7.016;2022-07-10T02:09:40;6.97;;;1.75;;
71753;SDS011;59593;51.716;7.016;2022-07-10T02:12:07;5.20;;;2.03;;
71753;SDS011;59593;51.716;7.016;2022-07-10T02:14:34;9.07;;;1.85;;
71753;SDS011;59593;51.716;7.016;2022-07-10T02:17:01;5.65;;;2.03;;
71753;SDS011;59593;51.716;7.016;2022-07-10T02:19:26;5.72;;;1.85;;
71753;SDS011;59593;51.716;7.016;2022-07-10T02:21:52;4.95;;;1.70;;
71753;SDS011;59593;51.716;7.016;2022-07-10T02:24:18;5.28;;;1.77;;
71753;SDS011;59593;51.716;7.016;2022-07-10T02:26:44;4.78;;;1.65;;
71753;SDS011;59593;51.716;7.016;2022-07-10T02:29:09;4.57;;;2.00;;
71753;SDS011;59593;51.716;7.016;2022-07-10T02:31:35;6.55;;;1.67;;
71753;SDS011;59593;51.716;7.016;2022-07-10T02:34:05;5.73;;;1.67;;
71753;SDS011;59593;51.716;7.016;2022-07-10T02:36:32;6.22;;;2.10;;
71753;SDS011;59593;51.716;7.016;2022-07-10T02:38:58;6.50;;;1.80;;
71753;SDS011;59593;51.716;7.016;2022-07-10T02:41:24;8.13;;;1.90;;
71753;SDS011;59593;51.716;7.016;2022-07-10T02:43:50;7.67;;;2.00;;
71753;SDS011;59593;51.716;7.016;2022-07-10T02:46:15;5.37;;;1.80;;
71753;SDS011;59593;51.716;7.016;2022-07-10T02:48:41;5.57;;;1.67;;
71753;SDS011;59593;51.716;7.016;2022-07-10T02:51:07;5.20;;;1.80;;
71753;SDS011;59593;51.716;7.016;2022-07-10T02:53:32;4.60;;;1.70;;
71753;SDS011;59593;51.716;7.016;2022-07-10T02:55:58;5.40;;;1.77;;
71753;SDS011;59593;51.716;7.016;2022-07-10T02:58:23;7.43;;;1.80;;
71753;SDS011;59593;51.716;7.016;2022-07-10T03:00:50;3.80;;;2.00;;
71753;SDS011;59593;51.716;7.016;2022-07-10T03:03:16;7.63;;;1.90;;
71753;SDS011;59593;51.716;7.016;2022-07-10T03:05:42;5.30;;;1.83;;
71753;SDS011;59593;51.716;7.016;2022-07-10T03:08:09;5.27;;;1.93;;
71753;SDS011;59593;51.716;7.016;2022-07-10T03:10:35;5.83;;;1.83;;
71753;SDS011;59593;51.716;7.016;2022-07-10T03:13:01;3.97;;;1.63;;
71753;SDS011;59593;51.716;7.016;2022-07-10T03:15:26;6.17;;;2.00;;
71753;SDS011;59593;51.716;7.016;2022-07-10T03:17:52;6.37;;;1.83;;
71753;SDS011;59593;51.716;7.016;2022-07-10T03:20:18;5.97;;;1.80;;
71753;SDS011;59593;51.716;7.016;2022-07-10T03:22:43;7.03;;;1.73;;
71753;SDS011;59593;51.716;7.016;2022-07-10T03:25:10;7.18;;;2.33;;
71753;SDS011;59593;51.716;7.016;2022-07-10T03:27:36;7.15;;;1.60;;
71753;SDS011;59593;51.716;7.016;2022-07-10T03:30:02;4.63;;;1.67;;
71753;SDS011;59593;51.716;7.016;2022-07-10T03:32:28;6.37;;;1.70;;
71753;SDS011;59593;51.716;7.016;2022-07-10T03:34:53;7.60;;;1.90;;
71753;SDS011;59593;51.716;7.016;2022-07-10T03:37:19;9.07;;;2.00;;
71753;SDS011;59593;51.716;7.016;2022-07-10T03:39:45;5.70;;;1.90;;
71753;SDS011;59593;51.716;7.016;2022-07-10T03:42:10;4.13;;;1.70;;
71753;SDS011;59593;51.716;7.016;2022-07-10T03:44:36;7.82;;;1.90;;
71753;SDS011;59593;51.716;7.016;2022-07-10T03:47:02;5.28;;;1.70;;
71753;SDS011;59593;51.716;7.016;2022-07-10T03:49:28;8.40;;;2.03;;
71753;SDS011;59593;51.716;7.016;2022-07-10T03:51:53;5.35;;;1.77;;
71753;SDS011;59593;51.716;7.016;2022-07-10T03:54:19;9.30;;;2.03;;
71753;SDS011;59593;51.716;7.016;2022-07-10T03:56:45;5.05;;;1.90;;
71753;SDS011;59593;51.716;7.016;2022-07-10T03:59:29;6.27;;;1.67;;
71753;SDS011;59593;51.716;7.016;2022-07-10T04:01:54;6.60;;;2.10;;
71753;SDS011;59593;51.716;7.016;2022-07-10T04:04:20;6.18;;;1.83;;
71753;SDS011;59593;51.716;7.016;2022-07-10T04:06:45;7.43;;;2.00;;
71753;SDS011;59593;51.716;7.016;2022-07-10T04:09:11;6.23;;;2.10;;
71753;SDS011;59593;51.716;7.016;2022-07-10T04:11:37;7.77;;;2.17;;
71753;SDS011;59593;51.716;7.016;2022-07-10T04:14:03;8.27;;;2.10;;
71753;SDS011;59593;51.716;7.016;2022-07-10T04:16:28;5.90;;;2.00;;
71753;SDS011;59593;51.716;7.016;2022-07-10T04:18:54;7.87;;;1.90;;
71753;SDS011;59593;51.716;7.016;2022-07-10T04:21:19;5.70;;;1.83;;
71753;SDS011;59593;51.716;7.016;2022-07-10T04:23:45;5.17;;;2.00;;
71753;SDS011;59593;51.716;7.016;2022-07-10T04:26:10;8.90;;;2.33;;
71753;SDS011;59593;51.716;7.016;2022-07-10T04:28:36;5.73;;;1.70;;
71753;SDS011;59593;51.716;7.016;2022-07-10T04:31:01;7.97;;;2.10;;
71753;SDS011;59593;51.716;7.016;2022-07-10T04:33:27;8.10;;;2.40;;
71753;SDS011;59593;51.716;7.016;2022-07-10T04:35:53;7.73;;;1.93;;
71753;SDS011;59593;51.716;7.016;2022-07-10T04:38:18;9.87;;;2.23;;
71753;SDS011;59593;51.716;7.016;2022-07-10T04:40:44;7.40;;;1.83;;
71753;SDS011;59593;51.716;7.016;2022-07-10T04:43:09;6.43;;;2.00;;
71753;SDS011;59593;51.716;7.016;2022-07-10T04:45:36;7.87;;;2.00;;
71753;SDS011;59593;51.716;7.016;2022-07-10T04:48:03;5.10;;;2.30;;
71753;SDS011;59593;51.716;7.016;2022-07-10T04:50:30;8.53;;;2.37;;
71753;SDS011;59593;51.716;7.016;2022-07-10T04:52:56;5.20;;;1.90;;
71753;SDS011;59593;51.716;7.016;2022-07-10T04:55:21;4.27;;;1.77;;
71753;SDS011;59593;51.716;7.016;2022-07-10T04:57:47;5.97;;;2.20;;
71753;SDS011;59593;51.716;7.016;2022-07-10T05:00:13;5.37;;;1.83;;
71753;SDS011;59593;51.716;7.016;2022-07-10T05:02:39;8.53;;;2.20;;
71753;SDS011;59593;51.716;7.016;2022-07-10T05:05:05;5.70;;;2.23;;
71753;SDS011;59593;51.716;7.016;2022-07-10T05:07:31;6.30;;;2.00;;
71753;SDS011;59593;51.716;7.016;2022-07-10T05:09:56;7.13;;;2.13;;
71753;SDS011;59593;51.716;7.016;2022-07-10T05:12:22;7.60;;;2.00;;
71753;SDS011;59593;51.716;7.016;2022-07-10T05:14:47;8.33;;;2.57;;
71753;SDS011;59593;51.716;7.016;2022-07-10T05:17:13;6.10;;;1.90;;
71753;SDS011;59593;51.716;7.016;2022-07-10T05:19:39;9.80;;;2.13;;
71753;SDS011;59593;51.716;7.016;2022-07-10T05:22:04;10.13;;;2.20;;
71753;SDS011;59593;51.716;7.016;2022-07-10T05:24:30;5.57;;;1.90;;
71753;SDS011;59593;51.716;7.016;2022-07-10T05:26:56;8.33;;;2.20;;
71753;SDS011;59593;51.716;7.016;2022-07-10T05:29:21;10.80;;;2.35;;
71753;SDS011;59593;51.716;7.016;2022-07-10T05:31:47;6.95;;;1.90;;
71753;SDS011;59593;51.716;7.016;2022-07-10T05:34:12;8.20;;;2.15;;
71753;SDS011;59593;51.716;7.016;2022-07-10T05:36:38;7.97;;;2.38;;
71753;SDS011;59593;51.716;7.016;2022-07-10T05:39:04;8.15;;;2.30;;
71753;SDS011;59593;51.716;7.016;2022-07-10T05:41:29;7.57;;;1.95;;
71753;SDS011;59593;51.716;7.016;2022-07-10T05:43:57;7.30;;;1.70;;
71753;SDS011;59593;51.716;7.016;2022-07-10T05:46:23;6.55;;;2.03;;
71753;SDS011;59593;51.716;7.016;2022-07-10T05:48:49;6.38;;;1.80;;
71753;SDS011;59593;51.716;7.016;2022-07-10T05:51:15;8.45;;;1.80;;
71753;SDS011;59593;51.716;7.016;2022-07-10T05:53:40;12.60;;;1.98;;
71753;SDS011;59593;51.716;7.016;2022-07-10T05:56:06;7.80;;;2.00;;
71753;SDS011;59593;51.716;7.016;2022-07-10T05:58:32;6.70;;;1.95;;
71753;SDS011;59593;51.716;7.016;2022-07-10T06:00:57;8.27;;;2.03;;
71753;SDS011;59593;51.716;7.016;2022-07-10T06:03:23;6.53;;;1.88;;
71753;SDS011;59593;51.716;7.016;2022-07-10T06:05:49;7.82;;;1.70;;
71753;SDS011;59593;51.716;7.016;2022-07-10T06:08:15;9.43;;;1.70;;
71753;SDS011;59593;51.716;7.016;2022-07-10T06:10:40;9.32;;;1.70;;
71753;SDS011;59593;51.716;7.016;2022-07-10T06:13:09;10.23;;;1.83;;
71753;SDS011;59593;51.716;7.016;2022-07-10T06:15:37;8.13;;;2.00;;
71753;SDS011;59593;51.716;7.016;2022-07-10T06:18:03;6.43;;;1.98;;
71753;SDS011;59593;51.716;7.016;2022-07-10T06:20:29;7.43;;;1.85;;
71753;SDS011;59593;51.716;7.016;2022-07-10T06:22:56;7.90;;;2.00;;
71753;SDS011;59593;51.716;7.016;2022-07-10T06:25:22;8.95;;;2.30;;
71753;SDS011;59593;51.716;7.016;2022-07-10T06:27:47;7.75;;;1.73;;
71753;SDS011;59593;51.716;7.016;2022-07-10T06:30:13;12.55;;;2.03;;
71753;SDS011;59593;51.716;7.016;2022-07-10T06:32:39;7.45;;;1.80;;
71753;SDS011;59593;51.716;7.016;2022-07-10T06:35:05;9.90;;;2.03;;
71753;SDS011;59593;51.716;7.016;2022-07-10T06:37:32;8.47;;;1.80;;
71753;SDS011;59593;51.716;7.016;2022-07-10T06:39:58;5.43;;;1.80;;
71753;SDS011;59593;51.716;7.016;2022-07-10T06:42:24;8.98;;;1.77;;
71753;SDS011;59593;51.716;7.016;2022-07-10T06:44:49;6.15;;;1.50;;
71753;SDS011;59593;51.716;7.016;2022-07-10T06:47:16;6.97;;;1.70;;
71753;SDS011;59593;51.716;7.016;2022-07-10T06:50:02;7.82;;;2.05;;
71753;SDS011;59593;51.716;7.016;2022-07-10T06:52:30;6.60;;;1.48;;
71753;SDS011;59593;51.716;7.016;2022-07-10T06:54:58;4.45;;;1.70;;
71753;SDS011;59593;51.716;7.016;2022-07-10T06:57:24;9.48;;;2.00;;
71753;SDS011;59593;51.716;7.016;2022-07-10T06:59:50;10.90;;;2.10;;
71753;SDS011;59593;51.716;7.016;2022-07-10T07:02:16;6.97;;;1.85;;
71753;SDS011;59593;51.716;7.016;2022-07-10T07:04:41;7.55;;;1.83;;
71753;SDS011;59593;51.716;7.016;2022-07-10T07:07:09;8.38;;;1.67;;
71753;SDS011;59593;51.716;7.016;2022-07-10T07:09:35;7.13;;;1.73;;
71753;SDS011;59593;51.716;7.016;2022-07-10T07:12:01;9.77;;;1.88;;
71753;SDS011;59593;51.716;7.016;2022-07-10T07:14:26;5.97;;;1.85;;
71753;SDS011;59593;51.716;7.016;2022-07-10T07:16:52;10.30;;;1.88;;
71753;SDS011;59593;51.716;7.016;2022-07-10T07:19:29;7.07;;;1.80;;
71753;SDS011;59593;51.716;7.016;2022-07-10T07:22:18;12.18;;;1.92;;
71753;SDS011;59593;51.716;7.016;2022-07-10T07:25:06;9.52;;;2.40;;
71753;SDS011;59593;51.716;7.016;2022-07-10T07:27:34;10.48;;;2.10;;
71753;SDS011;59593;51.716;7.016;2022-07-10T07:30:07;5.53;;;1.80;;
71753;SDS011;59593;51.716;7.016;2022-07-10T07:32:40;9.30;;;2.05;;
71753;SDS011;59593;51.716;7.016;2022-07-10T07:35:06;7.15;;;1.85;;
71753;SDS011;59593;51.716;7.016;2022-07-10T07:37:39;8.27;;;2.07;;
71753;SDS011;59593;51.716;7.016;2022-07-10T07:40:10;7.78;;;2.08;;
71753;SDS011;59593;51.716;7.016;2022-07-10T07:42:38;9.10;;;2.00;;
71753;SDS011;59593;51.716;7.016;2022-07-10T07:45:04;9.23;;;2.00;;
71753;SDS011;59593;51.716;7.016;2022-07-10T07:47:31;8.40;;;1.80;;
71753;SDS011;59593;51.716;7.016;2022-07-10T07:50:07;7.95;;;2.17;;
71753;SDS011;59593;51.716;7.016;2022-07-10T07:52:32;9.85;;;2.08;;
71753;SDS011;59593;51.716;7.016;2022-07-10T07:55:00;9.17;;;2.00;;
71753;SDS011;59593;51.716;7.016;2022-07-10T07:57:26;10.43;;;2.35;;
71753;SDS011;59593;51.716;7.016;2022-07-10T07:59:52;7.63;;;2.00;;
71753;SDS011;59593;51.716;7.016;2022-07-10T08:02:17;7.43;;;1.85;;
71753;SDS011;59593;51.716;7.016;2022-07-10T08:04:43;7.32;;;2.05;;
71753;SDS011;59593;51.716;7.016;2022-07-10T08:07:08;11.90;;;2.22;;
71753;SDS011;59593;51.716;7.016;2022-07-10T08:09:34;6.90;;;1.73;;
71753;SDS011;59593;51.716;7.016;2022-07-10T08:12:00;6.43;;;1.75;;
71753;SDS011;59593;51.716;7.016;2022-07-10T08:14:26;5.15;;;2.20;;
71753;SDS011;59593;51.716;7.016;2022-07-10T08:16:51;8.30;;;2.40;;
71753;SDS011;59593;51.716;7.016;2022-07-10T08:19:17;7.73;;;2.03;;
71753;SDS011;59593;51.716;7.016;2022-07-10T08:21:43;7.33;;;2.00;;
71753;SDS011;59593;51.716;7.016;2022-07-10T08:24:08;5.47;;;1.97;;
71753;SDS011;59593;51.716;7.016;2022-07-10T08:26:34;8.47;;;2.23;;
71753;SDS011;59593;51.716;7.016;2022-07-10T08:28:59;6.93;;;1.87;;
71753;SDS011;59593;51.716;7.016;2022-07-10T08:31:25;9.70;;;1.90;;
71753;SDS011;59593;51.716;7.016;2022-07-10T08:33:51;6.23;;;2.00;;
71753;SDS011;59593;51.716;7.016;2022-07-10T08:36:17;6.53;;;2.10;;
71753;SDS011;59593;51.716;7.016;2022-07-10T08:38:43;8.20;;;2.00;;
71753;SDS011;59593;51.716;7.016;2022-07-10T08:41:08;8.07;;;2.37;;
71753;SDS011;59593;51.716;7.016;2022-07-10T08:43:37;8.30;;;2.50;;
71753;SDS011;59593;51.716;7.016;2022-07-10T08:46:04;11.23;;;2.67;;
71753;SDS011;59593;51.716;7.016;2022-07-10T08:48:30;9.37;;;2.60;;
71753;SDS011;59593;51.716;7.016;2022-07-10T08:50:58;6.47;;;2.63;;
71753;SDS011;59593;51.716;7.016;2022-07-10T08:53:29;6.03;;;2.50;;
71753;SDS011;59593;51.716;7.016;2022-07-10T08:55:59;6.23;;;2.23;;
71753;SDS011;59593;51.716;7.016;2022-07-10T08:58:28;10.02;;;2.42;;
71753;SDS011;59593;51.716;7.016;2022-07-10T09:00:57;5.97;;;2.50;;
71753;SDS011;59593;51.716;7.016;2022-07-10T09:03:23;5.80;;;2.30;;
71753;SDS011;59593;51.716;7.016;2022-07-10T09:05:49;7.13;;;2.80;;
71753;SDS011;59593;51.716;7.016;2022-07-10T09:11:13;7.13;;;2.50;;
71753;SDS011;59593;51.716;7.016;2022-07-10T09:13:49;9.47;;;2.80;;
71753;SDS011;59593;51.716;7.016;2022-07-10T09:16:20;9.67;;;2.57;;
71753;SDS011;59593;51.716;7.016;2022-07-10T09:18:49;7.15;;;2.92;;
71753;SDS011;59593;51.716;7.016;2022-07-10T09:21:15;14.87;;;3.57;;
71753;SDS011;59593;51.716;7.016;2022-07-10T09:23:41;8.48;;;2.95;;
71753;SDS011;59593;51.716;7.016;2022-07-10T09:26:07;10.03;;;2.90;;
71753;SDS011;59593;51.716;7.016;2022-07-10T09:28:32;7.88;;;2.85;;
71753;SDS011;59593;51.716;7.016;2022-07-10T09:30:58;10.73;;;2.70;;
71753;SDS011;59593;51.716;7.016;2022-07-10T09:33:27;8.02;;;2.83;;
71753;SDS011;59593;51.716;7.016;2022-07-10T09:38:47;8.20;;;2.60;;
71753;SDS011;59593;51.716;7.016;2022-07-10T09:41:25;8.35;;;2.78;;
71753;SDS011;59593;51.716;7.016;2022-07-10T09:44:02;10.83;;;2.97;;
71753;SDS011;59593;51.716;7.016;2022-07-10T09:46:35;8.57;;;2.80;;
71753;SDS011;59593;51.716;7.016;2022-07-10T09:54:06;8.18;;;2.70;;
71753;SDS011;59593;51.716;7.016;2022-07-10T09:56:43;9.38;;;2.65;;
71753;SDS011;59593;51.716;7.016;2022-07-10T09:59:16;12.93;;;3.33;;
71753;SDS011;59593;51.716;7.016;2022-07-10T10:01:44;7.03;;;2.85;;
71753;SDS011;59593;51.716;7.016;2022-07-10T10:04:14;12.52;;;3.30;;
71753;SDS011;59593;51.716;7.016;2022-07-10T10:06:42;8.18;;;3.15;;
71753;SDS011;59593;51.716;7.016;2022-07-10T10:09:12;7.03;;;3.25;;
71753;SDS011;59593;51.716;7.016;2022-07-10T10:11:47;9.70;;;3.20;;
71753;SDS011;59593;51.716;7.016;2022-07-10T10:14:16;8.70;;;3.40;;
71753;SDS011;59593;51.716;7.016;2022-07-10T10:16:45;11.35;;;3.30;;
71753;SDS011;59593;51.716;7.016;2022-07-10T10:19:12;9.27;;;3.20;;
71753;SDS011;59593;51.716;7.016;2022-07-10T10:21:58;10.25;;;3.25;;
71753;SDS011;59593;51.716;7.016;2022-07-10T10:24:25;9.48;;;3.20;;
71753;SDS011;59593;51.716;7.016;2022-07-10T10:26:52;8.15;;;3.30;;
71753;SDS011;59593;51.716;7.016;2022-07-10T10:29:19;7.50;;;3.42;;
71753;SDS011;59593;51.716;7.016;2022-07-10T10:31:44;10.98;;;3.70;;
71753;SDS011;59593;51.716;7.016;2022-07-10T10:34:11;8.07;;;3.00;;
71753;SDS011;59593;51.716;7.016;2022-07-10T10:39:19;10.35;;;3.65;;
71753;SDS011;59593;51.716;7.016;2022-07-10T10:47:04;5.90;;;3.53;;
71753;SDS011;59593;51.716;7.016;2022-07-10T10:52:16;5.32;;;2.58;;
71753;SDS011;59593;51.716;7.016;2022-07-10T10:59:56;5.38;;;2.55;;
71753;SDS011;59593;51.716;7.016;2022-07-10T11:10:44;4.32;;;2.13;;
71753;SDS011;59593;51.716;7.016;2022-07-10T11:15:53;2.50;;;1.83;;
71753;SDS011;59593;51.716;7.016;2022-07-10T11:18:20;3.42;;;1.80;;
71753;SDS011;59593;51.716;7.016;2022-07-10T11:20:53;3.65;;;1.92;;
71753;SDS011;59593;51.716;7.016;2022-07-10T11:26:07;3.40;;;1.85;;
71753;SDS011;59593;51.716;7.016;2022-07-10T11:28:54;1.83;;;1.70;;
71753;SDS011;59593;51.716;7.016;2022-07-10T11:31:21;3.35;;;1.73;;
71753;SDS011;59593;51.716;7.016;2022-07-10T11:33:49;2.10;;;1.67;;
71753;SDS011;59593;51.716;7.016;2022-07-10T11:36:17;2.88;;;1.90;;
71753;SDS011;59593;51.716;7.016;2022-07-10T11:38:44;3.22;;;2.00;;
71753;SDS011;59593;51.716;7.016;2022-07-10T11:46:19;3.35;;;2.60;;
71753;SDS011;59593;51.716;7.016;2022-07-10T11:48:46;3.72;;;2.85;;
71753;SDS011;59593;51.716;7.016;2022-07-10T11:51:24;4.93;;;2.90;;
71753;SDS011;59593;51.716;7.016;2022-07-10T11:54:13;8.43;;;3.42;;
71753;SDS011;59593;51.716;7.016;2022-07-10T11:56:45;5.03;;;3.00;;
71753;SDS011;59593;51.716;7.016;2022-07-10T11:59:17;4.47;;;2.92;;
71753;SDS011;59593;51.716;7.016;2022-07-10T12:01:47;6.75;;;2.75;;
71753;SDS011;59593;51.716;7.016;2022-07-10T12:04:15;4.78;;;3.10;;
71753;SDS011;59593;51.716;7.016;2022-07-10T12:06:46;6.75;;;2.88;;
71753;SDS011;59593;51.716;7.016;2022-07-10T12:09:13;4.15;;;3.35;;
71753;SDS011;59593;51.716;7.016;2022-07-10T12:11:41;4.85;;;2.80;;
71753;SDS011;59593;51.716;7.016;2022-07-10T12:14:17;6.20;;;3.00;;
71753;SDS011;59593;51.716;7.016;2022-07-10T12:16:45;4.93;;;3.10;;
71753;SDS011;59593;51.716;7.016;2022-07-10T12:19:17;5.35;;;3.05;;
71753;SDS011;59593;51.716;7.016;2022-07-10T12:21:45;6.18;;;3.03;;
71753;SDS011;59593;51.716;7.016;2022-07-10T12:24:12;5.07;;;2.78;;
71753;SDS011;59593;51.716;7.016;2022-07-10T12:26:40;3.28;;;2.53;;
71753;SDS011;59593;51.716;7.016;2022-07-10T12:29:11;3.70;;;2.50;;
71753;SDS011;59593;51.716;7.016;2022-07-10T12:31:44;3.67;;;1.98;;
71753;SDS011;59593;51.716;7.016;2022-07-10T12:34:11;5.53;;;2.33;;
71753;SDS011;59593;51.716;7.016;2022-07-10T12:36:41;3.38;;;2.20;;
71753;SDS011;59593;51.716;7.016;2022-07-10T12:39:08;3.67;;;1.90;;
71753;SDS011;59593;51.716;7.016;2022-07-10T12:41:34;2.90;;;1.95;;
71753;SDS011;59593;51.716;7.016;2022-07-10T12:44:00;4.43;;;2.08;;
71753;SDS011;59593;51.716;7.016;2022-07-10T12:46:26;3.38;;;1.85;;
71753;SDS011;59593;51.716;7.016;2022-07-10T12:49:01;3.55;;;2.00;;
71753;SDS011;59593;51.716;7.016;2022-07-10T12:51:28;4.63;;;2.40;;
71753;SDS011;59593;51.716;7.016;2022-07-10T12:53:56;5.57;;;2.40;;
71753;SDS011;59593;51.716;7.016;2022-07-10T12:56:32;4.20;;;2.28;;
71753;SDS011;59593;51.716;7.016;2022-07-10T12:59:03;4.50;;;1.85;;
71753;SDS011;59593;51.716;7.016;2022-07-10T13:01:41;7.00;;;1.83;;
71753;SDS011;59593;51.716;7.016;2022-07-10T13:04:08;3.63;;;1.60;;
71753;SDS011;59593;51.716;7.016;2022-07-10T13:06:35;2.90;;;1.75;;
71753;SDS011;59593;51.716;7.016;2022-07-10T13:09:02;3.42;;;1.85;;
71753;SDS011;59593;51.716;7.016;2022-07-10T13:11:42;3.60;;;1.90;;
71753;SDS011;59593;51.716;7.016;2022-07-10T13:14:08;3.78;;;1.70;;
71753;SDS011;59593;51.716;7.016;2022-07-10T13:16:33;3.92;;;1.67;;
71753;SDS011;59593;51.716;7.016;2022-07-10T13:19:00;3.05;;;1.80;;
71753;SDS011;59593;51.716;7.016;2022-07-10T13:21:26;4.85;;;2.00;;
71753;SDS011;59593;51.716;7.016;2022-07-10T13:23:51;5.72;;;1.90;;
71753;SDS011;59593;51.716;7.016;2022-07-10T13:26:17;3.05;;;1.95;;
71753;SDS011;59593;51.716;7.016;2022-07-10T13:28:42;5.32;;;2.00;;
71753;SDS011;59593;51.716;7.016;2022-07-10T13:31:08;5.38;;;1.90;;
71753;SDS011;59593;51.716;7.016;2022-07-10T13:33:34;3.67;;;1.73;;
71753;SDS011;59593;51.716;7.016;2022-07-10T13:36:00;2.72;;;1.90;;
71753;SDS011;59593;51.716;7.016;2022-07-10T13:38:28;4.28;;;1.80;;
71753;SDS011;59593;51.716;7.016;2022-07-10T13:40:54;3.75;;;1.92;;
71753;SDS011;59593;51.716;7.016;2022-07-10T13:43:19;6.60;;;1.73;;
71753;SDS011;59593;51.716;7.016;2022-07-10T13:45:46;3.80;;;1.65;;
71753;SDS011;59593;51.716;7.016;2022-07-10T13:48:13;2.88;;;1.80;;
71753;SDS011;59593;51.716;7.016;2022-07-10T13:50:40;5.68;;;1.98;;
71753;SDS011;59593;51.716;7.016;2022-07-10T13:53:07;4.25;;;1.95;;
71753;SDS011;59593;51.716;7.016;2022-07-10T13:55:33;3.05;;;1.70;;
71753;SDS011;59593;51.716;7.016;2022-07-10T13:57:59;3.35;;;2.03;;
71753;SDS011;59593;51.716;7.016;2022-07-10T14:00:25;3.03;;;1.60;;
71753;SDS011;59593;51.716;7.016;2022-07-10T14:02:50;2.85;;;1.90;;
71753;SDS011;59593;51.716;7.016;2022-07-10T14:05:16;4.45;;;2.08;;
71753;SDS011;59593;51.716;7.016;2022-07-10T14:07:42;4.75;;;2.22;;
71753;SDS011;59593;51.716;7.016;2022-07-10T14:10:07;6.25;;;1.90;;
71753;SDS011;59593;51.716;7.016;2022-07-10T14:12:34;3.92;;;1.85;;
71753;SDS011;59593;51.716;7.016;2022-07-10T14:14:59;5.93;;;1.88;;
71753;SDS011;59593;51.716;7.016;2022-07-10T14:17:25;2.25;;;1.48;;
71753;SDS011;59593;51.716;7.016;2022-07-10T14:19:51;2.63;;;1.40;;
71753;SDS011;59593;51.716;7.016;2022-07-10T14:22:17;2.05;;;1.30;;
71753;SDS011;59593;51.716;7.016;2022-07-10T14:24:42;2.22;;;1.40;;
71753;SDS011;59593;51.716;7.016;2022-07-10T14:27:08;2.88;;;1.48;;
71753;SDS011;59593;51.716;7.016;2022-07-10T14:29:34;2.53;;;1.40;;
71753;SDS011;59593;51.716;7.016;2022-07-10T14:32:00;3.05;;;1.50;;
71753;SDS011;59593;51.716;7.016;2022-07-10T14:34:25;1.60;;;1.50;;
71753;SDS011;59593;51.716;7.016;2022-07-10T14:36:53;2.85;;;1.23;;
71753;SDS011;59593;51.716;7.016;2022-07-10T14:39:19;3.25;;;1.60;;
71753;SDS011;59593;51.716;7.016;2022-07-10T14:41:44;3.55;;;1.50;;
71753;SDS011;59593;51.716;7.016;2022-07-10T14:44:10;2.17;;;1.17;;
71753;SDS011;59593;51.716;7.016;2022-07-10T14:46:35;1.20;;;1.10;;
71753;SDS011;59593;51.716;7.016;2022-07-10T14:49:01;3.95;;;1.00;;
71753;SDS011;59593;51.716;7.016;2022-07-10T14:51:27;2.90;;;1.30;;
71753;SDS011;59593;51.716;7.016;2022-07-10T14:53:54;3.17;;;1.20;;
71753;SDS011;59593;51.716;7.016;2022-07-10T14:56:21;2.20;;;1.20;;
71753;SDS011;59593;51.716;7.016;2022-07-10T14:58:47;2.15;;;1.20;;
71753;SDS011;59593;51.716;7.016;2022-07-10T15:01:13;3.42;;;1.30;;
71753;SDS011;59593;51.716;7.016;2022-07-10T15:03:39;2.88;;;1.40;;
71753;SDS011;59593;51.716;7.016;2022-07-10T15:06:05;4.40;;;1.27;;
71753;SDS011;59593;51.716;7.016;2022-07-10T15:08:31;3.28;;;1.25;;
71753;SDS011;59593;51.716;7.016;2022-07-10T15:10:57;2.03;;;1.10;;
71753;SDS011;59593;51.716;7.016;2022-07-10T15:13:24;2.13;;;1.45;;
71753;SDS011;59593;51.716;7.016;2022-07-10T15:15:50;3.50;;;1.60;;
71753;SDS011;59593;51.716;7.016;2022-07-10T15:18:17;3.22;;;1.30;;
71753;SDS011;59593;51.716;7.016;2022-07-10T15:20:43;2.65;;;1.40;;
71753;SDS011;59593;51.716;7.016;2022-07-10T15:23:09;3.15;;;1.27;;
71753;SDS011;59593;51.716;7.016;2022-07-10T15:25:35;2.20;;;1.33;;
71753;SDS011;59593;51.716;7.016;2022-07-10T15:28:04;2.17;;;1.23;;
71753;SDS011;59593;51.716;7.016;2022-07-10T15:30:30;5.20;;;1.40;;
71753;SDS011;59593;51.716;7.016;2022-07-10T15:32:56;5.18;;;1.50;;
71753;SDS011;59593;51.716;7.016;2022-07-10T15:35:21;2.10;;;1.35;;